createdAt,value
2022-09-11T00:00:53.576Z,2.20
2022-09-11T00:03:15.139Z,2.53
2022-09-11T00:05:43.471Z,2.30
2022-09-11T00:08:06.331Z,2.37
2022-09-11T00:10:28.183Z,2.20
2022-09-11T00:12:50.052Z,2.20
2022-09-11T00:15:11.470Z,2.50
2022-09-11T00:17:33.109Z,3.00
2022-09-11T00:19:54.543Z,2.60
2022-09-11T00:22:15.962Z,3.28
2022-09-11T00:24:37.540Z,3.00
2022-09-11T00:26:59.005Z,3.80
2022-09-11T00:29:20.417Z,3.70
2022-09-11T00:31:41.950Z,3.72
2022-09-11T00:34:03.441Z,3.42
2022-09-11T00:36:29.015Z,2.90
2022-09-11T00:38:51.444Z,2.83
2022-09-11T00:41:15.655Z,3.00
2022-09-11T00:44:04.682Z,3.77
2022-09-11T00:46:34.456Z,3.57
2022-09-11T00:48:57.274Z,4.53
2022-09-11T00:51:25.998Z,3.67
2022-09-11T00:53:49.544Z,4.17
2022-09-11T00:56:11.261Z,4.10
2022-09-11T00:58:38.248Z,4.53
2022-09-11T01:01:00.904Z,5.03
2022-09-11T01:03:24.379Z,5.50
2022-09-11T01:05:46.388Z,5.07
2022-09-11T01:08:08.115Z,4.77
2022-09-11T01:11:06.881Z,4.00
2022-09-11T01:13:59.313Z,4.23
2022-09-11T01:16:59.880Z,4.43
2022-09-11T01:19:46.592Z,5.80
2022-09-11T01:22:18.659Z,6.47
2022-09-11T01:25:12.280Z,6.23
2022-09-11T01:27:42.222Z,7.07
2022-09-11T01:30:11.856Z,5.83
2022-09-11T01:32:52.363Z,5.97
2022-09-11T01:35:20.800Z,5.93
2022-09-11T01:37:51.629Z,5.90
2022-09-11T01:40:22.174Z,6.10
2022-09-11T01:42:46.039Z,5.40
2022-09-11T01:45:07.958Z,6.20
2022-09-11T01:47:33.173Z,5.73
2022-09-11T01:50:03.073Z,5.30
2022-09-11T01:52:29.299Z,4.93
2022-09-11T01:55:16.200Z,5.30
2022-09-11T01:57:44.099Z,5.90
2022-09-11T02:00:22.195Z,5.70
2022-09-11T02:02:59.429Z,6.03
2022-09-11T02:05:29.068Z,6.03
2022-09-11T02:08:00.204Z,5.50
2022-09-11T02:10:32.119Z,5.80
2022-09-11T02:13:04.862Z,5.10
2022-09-11T02:15:38.923Z,5.60
2022-09-11T02:18:06.099Z,5.55
2022-09-11T02:20:28.727Z,6.00
2022-09-11T02:22:50.163Z,5.57
2022-09-11T02:25:11.957Z,5.75
2022-09-11T02:27:34.524Z,7.57
2022-09-11T02:29:56.030Z,6.97
2022-09-11T02:32:18.825Z,6.97
2022-09-11T02:34:42.866Z,7.40
2022-09-11T02:37:31.343Z,7.30
2022-09-11T02:40:15.825Z,7.77
2022-09-11T02:43:06.264Z,8.90
2022-09-11T02:45:41.294Z,8.60
2022-09-11T02:48:35.648Z,9.27
2022-09-11T02:51:21.764Z,8.55
2022-09-11T02:53:51.604Z,9.30
2022-09-11T02:56:25.939Z,10.57
2022-09-11T02:58:51.100Z,11.07
2022-09-11T03:01:12.932Z,10.85
2022-09-11T03:03:46.167Z,11.38
2022-09-11T03:06:15.582Z,12.80
2022-09-11T03:08:37.000Z,12.13
2022-09-11T03:10:58.404Z,12.60
2022-09-11T03:13:19.827Z,12.13
2022-09-11T03:15:45.104Z,12.20
2022-09-11T03:18:06.525Z,11.17
2022-09-11T03:20:27.928Z,12.25
2022-09-11T03:22:49.347Z,12.85
2022-09-11T03:25:11.797Z,12.75
2022-09-11T03:27:33.209Z,11.90
2022-09-11T03:29:54.771Z,12.10
2022-09-11T03:32:16.275Z,11.60
2022-09-11T03:34:37.688Z,11.67
2022-09-11T03:37:00.207Z,10.75
2022-09-11T03:39:21.682Z,10.68
2022-09-11T03:41:43.146Z,10.70
2022-09-11T03:44:04.567Z,9.82
2022-09-11T03:46:26.151Z,10.60
2022-09-11T03:48:47.566Z,10.32
2022-09-11T03:51:08.985Z,10.20
2022-09-11T03:53:32.380Z,10.20
2022-09-11T03:55:54.821Z,9.68
2022-09-11T03:58:18.712Z,9.70
2022-09-11T04:00:44.279Z,10.68
2022-09-11T04:03:05.820Z,11.45
2022-09-11T04:05:27.359Z,11.63
2022-09-11T04:07:48.939Z,10.70
2022-09-11T04:10:10.870Z,10.77
2022-09-11T04:12:32.297Z,10.35
2022-09-11T04:14:53.714Z,11.07
2022-09-11T04:17:15.111Z,11.82
2022-09-11T04:19:36.529Z,10.23
2022-09-11T04:21:57.936Z,12.25
2022-09-11T04:24:19.351Z,11.20
2022-09-11T04:26:41.027Z,11.20
2022-09-11T04:29:02.446Z,10.68
2022-09-11T04:31:23.971Z,10.63
2022-09-11T04:33:45.597Z,10.32
2022-09-11T04:36:12.991Z,11.68
2022-09-11T04:38:34.410Z,12.10
2022-09-11T04:41:00.493Z,11.55
2022-09-11T04:43:21.894Z,11.07
2022-09-11T04:45:43.344Z,10.63
2022-09-11T04:48:04.782Z,11.57
2022-09-11T04:50:26.884Z,11.48
2022-09-11T04:52:48.288Z,12.45
2022-09-11T04:55:09.891Z,12.57
2022-09-11T04:57:31.346Z,12.35
2022-09-11T04:59:52.996Z,11.77
2022-09-11T05:02:15.178Z,12.60
2022-09-11T05:04:37.316Z,12.75
2022-09-11T05:06:58.734Z,13.20
2022-09-11T05:09:20.201Z,13.23
2022-09-11T05:11:41.958Z,12.77
2022-09-11T05:14:03.713Z,13.45
2022-09-11T05:16:29.335Z,13.80
2022-09-11T05:18:52.536Z,14.80
2022-09-11T05:21:15.740Z,15.95
2022-09-11T05:23:37.154Z,15.63
2022-09-11T05:26:14.043Z,16.08
2022-09-11T05:28:35.460Z,18.63
2022-09-11T05:30:58.274Z,18.38
2022-09-11T05:33:19.706Z,17.83
2022-09-11T05:35:41.097Z,17.90
2022-09-11T05:38:02.596Z,16.80
2022-09-11T05:40:24.014Z,16.38
2022-09-11T05:42:45.442Z,16.23
2022-09-11T05:45:07.204Z,17.42
2022-09-11T05:47:28.640Z,17.40
2022-09-11T05:49:50.032Z,17.77
2022-09-11T05:52:11.467Z,17.10
2022-09-11T05:54:32.872Z,16.70
2022-09-11T05:56:55.721Z,17.58
2022-09-11T05:59:17.459Z,17.60
2022-09-11T06:01:38.951Z,17.65
2022-09-11T06:04:02.178Z,16.70
2022-09-11T06:06:24.470Z,18.00
2022-09-11T06:08:47.348Z,18.45
2022-09-11T06:11:09.133Z,17.33
2022-09-11T06:13:32.603Z,17.27
2022-09-11T06:15:53.988Z,18.40
2022-09-11T06:18:16.390Z,16.85
2022-09-11T06:20:37.794Z,17.17
2022-09-11T06:23:00.880Z,18.30
2022-09-11T06:25:22.316Z,21.25
2022-09-11T06:27:43.957Z,20.75
2022-09-11T06:30:05.763Z,18.85
2022-09-11T06:32:28.529Z,18.02
2022-09-11T06:34:50.024Z,18.70
2022-09-11T06:37:12.050Z,18.75
2022-09-11T06:39:34.282Z,19.10
2022-09-11T06:41:55.979Z,20.15
2022-09-11T06:44:17.377Z,20.10
2022-09-11T06:46:40.371Z,19.23
2022-09-11T06:49:02.248Z,20.38
2022-09-11T06:51:24.087Z,19.40
2022-09-11T06:53:47.351Z,19.25
2022-09-11T06:56:12.817Z,18.90
2022-09-11T06:58:34.224Z,17.67
2022-09-11T07:01:06.839Z,18.35
2022-09-11T07:03:28.281Z,17.20
2022-09-11T07:05:49.680Z,17.48
2022-09-11T07:08:11.137Z,17.15
2022-09-11T07:10:32.929Z,16.52
2022-09-11T07:12:55.740Z,17.90
2022-09-11T07:15:17.143Z,18.58
2022-09-11T07:17:38.558Z,16.90
2022-09-11T07:20:00.197Z,15.50
2022-09-11T07:22:22.122Z,17.30
2022-09-11T07:24:44.065Z,17.13
2022-09-11T07:27:05.610Z,17.33
2022-09-11T07:29:27.171Z,17.05
2022-09-11T07:31:49.018Z,17.35
2022-09-11T07:34:10.845Z,16.20
2022-09-11T07:36:34.384Z,16.08
2022-09-11T07:38:57.508Z,16.83
2022-09-11T07:41:21.713Z,16.52
2022-09-11T07:43:45.523Z,16.33
2022-09-11T07:46:09.910Z,16.58
2022-09-11T07:48:31.732Z,17.92
2022-09-11T07:51:02.436Z,17.13
2022-09-11T07:53:25.561Z,15.82
2022-09-11T07:55:46.956Z,16.92
2022-09-11T07:58:08.752Z,16.08
2022-09-11T08:00:33.018Z,16.05
2022-09-11T08:02:58.068Z,16.75
2022-09-11T08:05:19.654Z,15.63
2022-09-11T08:07:41.063Z,16.95
2022-09-11T08:10:26.056Z,15.00
2022-09-11T08:12:46.457Z,14.63
2022-09-11T08:15:08.301Z,13.63
2022-09-11T08:17:29.740Z,15.68
2022-09-11T08:19:51.642Z,14.73
2022-09-11T08:22:13.156Z,14.32
2022-09-11T08:24:34.884Z,15.68
2022-09-11T08:26:57.166Z,15.80
2022-09-11T08:29:18.593Z,15.63
2022-09-11T08:31:40.078Z,15.88
2022-09-11T08:34:01.727Z,15.48
2022-09-11T08:36:23.769Z,17.02
2022-09-11T08:38:46.017Z,16.85
2022-09-11T08:41:34.958Z,16.95
2022-09-11T08:44:01.570Z,16.50
2022-09-11T08:46:26.808Z,17.38
2022-09-11T08:49:01.824Z,17.70
2022-09-11T08:51:25.943Z,15.95
2022-09-11T08:53:47.878Z,17.00
2022-09-11T08:56:15.164Z,16.98
2022-09-11T08:59:04.174Z,16.20
2022-09-11T09:01:37.154Z,15.95
2022-09-11T09:04:29.827Z,16.60
2022-09-11T09:07:07.387Z,16.02
2022-09-11T09:09:42.749Z,16.40
2022-09-11T09:12:12.756Z,17.33
2022-09-11T09:15:05.944Z,17.48
2022-09-11T09:17:35.799Z,15.98
2022-09-11T09:20:02.735Z,16.58
2022-09-11T09:22:30.118Z,15.15
2022-09-11T09:25:00.283Z,15.13
2022-09-11T09:27:30.373Z,14.27
2022-09-11T09:29:57.409Z,14.30
2022-09-11T09:32:25.770Z,13.98
2022-09-11T09:34:50.966Z,13.55
2022-09-11T09:37:20.044Z,13.32
2022-09-11T09:39:41.497Z,13.93
2022-09-11T09:42:29.574Z,13.30
2022-09-11T09:44:50.932Z,14.35
2022-09-11T09:47:14.330Z,13.10
2022-09-11T09:49:37.472Z,13.13
2022-09-11T09:52:05.266Z,13.25
2022-09-11T09:54:31.011Z,14.05
2022-09-11T09:57:00.377Z,13.45
2022-09-11T09:59:37.066Z,12.70
2022-09-11T10:01:58.671Z,12.63
2022-09-11T10:04:22.749Z,9.82
2022-09-11T10:06:46.322Z,9.60
2022-09-11T10:09:21.402Z,9.07
2022-09-11T10:11:43.264Z,8.52
2022-09-11T10:14:07.861Z,8.88
2022-09-11T10:16:32.734Z,9.00
2022-09-11T10:18:55.911Z,9.13
2022-09-11T10:21:29.718Z,9.50
2022-09-11T10:24:22.472Z,9.15
2022-09-11T10:26:51.408Z,9.32
2022-09-11T10:29:26.899Z,8.50
2022-09-11T10:31:50.968Z,7.97
2022-09-11T10:34:17.444Z,7.82
2022-09-11T10:36:38.856Z,7.85
2022-09-11T10:39:01.890Z,7.28
2022-09-11T10:41:26.982Z,7.85
2022-09-11T10:44:05.981Z,7.10
2022-09-11T10:46:40.020Z,7.15
2022-09-11T10:49:18.122Z,6.72
2022-09-11T10:51:46.835Z,6.55
2022-09-11T10:54:41.223Z,6.63
2022-09-11T10:57:18.548Z,6.90
2022-09-11T10:59:46.049Z,6.82
2022-09-11T11:02:28.564Z,6.88
2022-09-11T11:04:50.168Z,7.07
2022-09-11T11:07:26.485Z,7.07
2022-09-11T11:09:57.319Z,7.25
2022-09-11T11:12:35.311Z,7.35
2022-09-11T11:15:15.780Z,7.85
2022-09-11T11:17:51.277Z,6.75
2022-09-11T11:20:27.614Z,7.20
2022-09-11T11:23:26.599Z,6.70
2022-09-11T11:26:00.559Z,6.45
2022-09-11T11:28:46.038Z,6.05
2022-09-11T11:31:42.436Z,6.30
2022-09-11T11:34:22.543Z,6.13
2022-09-11T11:36:53.354Z,6.32
2022-09-11T11:39:23.787Z,5.68
2022-09-11T11:42:12.024Z,5.75
2022-09-11T11:44:54.318Z,4.80
2022-09-11T11:47:19.175Z,4.47
2022-09-11T11:49:48.966Z,3.97
2022-09-11T11:52:43.056Z,4.22
2022-09-11T11:55:15.000Z,3.90
2022-09-11T11:57:41.630Z,4.18
2022-09-11T12:00:13.268Z,3.90
2022-09-11T12:02:58.145Z,3.65
2022-09-11T12:05:26.749Z,3.55
2022-09-11T12:07:48.347Z,3.88
2022-09-11T12:10:22.368Z,3.30
2022-09-11T12:12:52.326Z,3.70
2022-09-11T12:15:22.870Z,3.67
2022-09-11T12:17:46.028Z,3.90
2022-09-11T12:20:13.489Z,4.00
2022-09-11T12:22:41.323Z,4.22
2022-09-11T12:25:03.365Z,4.40
2022-09-11T12:27:34.298Z,3.92
2022-09-11T12:30:07.332Z,3.88
2022-09-11T12:32:41.989Z,3.88
2022-09-11T12:35:15.878Z,3.70
2022-09-11T12:37:38.697Z,3.78
2022-09-11T12:40:24.795Z,3.60
2022-09-11T12:42:55.082Z,3.95
2022-09-11T12:45:38.415Z,3.80
2022-09-11T12:48:06.941Z,3.72
2022-09-11T12:50:28.718Z,3.58
2022-09-11T12:53:02.107Z,4.20
2022-09-11T12:55:43.388Z,4.47
2022-09-11T12:58:08.528Z,4.07
2022-09-11T13:00:38.263Z,4.25
2022-09-11T13:03:00.153Z,4.22
2022-09-11T13:05:36.428Z,3.83
2022-09-11T13:08:04.286Z,3.40
2022-09-11T13:10:35.267Z,3.60
2022-09-11T13:12:58.708Z,3.67
2022-09-11T13:15:43.315Z,3.10
2022-09-11T13:18:37.674Z,3.20
2022-09-11T13:21:13.429Z,3.40
2022-09-11T13:23:34.837Z,2.85
2022-09-11T13:25:58.178Z,3.30
2022-09-11T13:28:24.322Z,3.17
2022-09-11T13:30:54.491Z,2.65
2022-09-11T13:33:21.651Z,3.25
2022-09-11T13:35:46.359Z,3.45
2022-09-11T13:38:11.014Z,3.30
2022-09-11T13:40:38.918Z,3.25
2022-09-11T13:43:01.897Z,2.72
2022-09-11T13:45:24.171Z,2.83
2022-09-11T13:47:45.778Z,2.60
2022-09-11T13:50:12.882Z,3.00
2022-09-11T13:52:35.670Z,3.05
2022-09-11T13:54:59.853Z,2.65
2022-09-11T13:57:23.918Z,2.50
2022-09-11T13:59:54.953Z,2.72
2022-09-11T14:02:38.207Z,2.58
2022-09-11T14:05:27.129Z,2.80
2022-09-11T14:07:52.224Z,2.40
2022-09-11T14:10:25.320Z,2.30
2022-09-11T14:13:23.131Z,2.53
2022-09-11T14:15:49.815Z,2.35
2022-09-11T14:18:25.957Z,2.45
2022-09-11T14:20:47.605Z,2.70
2022-09-11T14:23:24.191Z,2.75
2022-09-11T14:26:05.694Z,2.88
2022-09-11T14:28:41.738Z,2.58
2022-09-11T14:31:14.468Z,2.42
2022-09-11T14:33:35.998Z,2.65
2022-09-11T14:36:07.617Z,2.45
2022-09-11T14:38:29.467Z,2.97
2022-09-11T14:41:01.198Z,3.20
2022-09-11T14:43:26.858Z,2.90
2022-09-11T14:45:50.118Z,2.95
2022-09-11T14:48:14.314Z,2.83
2022-09-11T14:50:37.467Z,2.80
2022-09-11T14:52:59.813Z,2.90
2022-09-11T14:55:21.206Z,3.33
2022-09-11T14:57:42.688Z,2.55
2022-09-11T15:00:04.675Z,3.00
2022-09-11T15:02:28.772Z,3.08
2022-09-11T15:04:51.849Z,2.97
2022-09-11T15:07:15.529Z,3.03
2022-09-11T15:09:38.235Z,3.40
2022-09-11T15:11:59.701Z,2.95
2022-09-11T15:14:44.658Z,2.92
2022-09-11T15:17:05.656Z,3.40
2022-09-11T15:19:27.543Z,3.13
2022-09-11T15:21:49.053Z,3.10
2022-09-11T15:24:10.448Z,2.75
2022-09-11T15:26:37.240Z,2.70
2022-09-11T15:28:58.696Z,2.90
2022-09-11T15:31:20.251Z,2.80
2022-09-11T15:33:50.091Z,2.90
2022-09-11T15:36:11.972Z,2.47
2022-09-11T15:38:33.453Z,2.80
2022-09-11T15:40:56.712Z,2.88
2022-09-11T15:43:19.114Z,2.35
2022-09-11T15:45:43.032Z,2.20
2022-09-11T15:48:04.579Z,2.38
2022-09-11T15:50:30.002Z,2.35
2022-09-11T15:52:51.426Z,2.42
2022-09-11T15:55:13.438Z,2.13
2022-09-11T15:57:35.917Z,2.20
2022-09-11T15:59:57.334Z,2.20
2022-09-11T16:02:20.794Z,2.22
2022-09-11T16:04:42.297Z,2.53
2022-09-11T16:07:04.538Z,2.38
2022-09-11T16:09:29.245Z,2.20
2022-09-11T16:11:51.869Z,2.50
2022-09-11T16:14:19.930Z,2.70
2022-09-11T16:16:41.343Z,3.45
2022-09-11T16:19:03.810Z,3.15
2022-09-11T16:21:27.121Z,2.70
2022-09-11T16:23:53.556Z,3.03
2022-09-11T16:26:18.986Z,2.90
2022-09-11T16:28:40.861Z,2.75
2022-09-11T16:31:03.211Z,2.92
2022-09-11T16:33:24.733Z,3.05
2022-09-11T16:35:57.221Z,3.40
2022-09-11T16:38:18.645Z,3.25
2022-09-11T16:40:40.053Z,3.20
2022-09-11T16:43:03.312Z,3.20
2022-09-11T16:45:24.823Z,3.22
2022-09-11T16:47:46.730Z,3.20
2022-09-11T16:50:08.746Z,2.95
2022-09-11T16:52:30.339Z,3.20
2022-09-11T16:54:52.269Z,3.30
2022-09-11T16:57:13.699Z,3.10
2022-09-11T16:59:35.199Z,3.13
2022-09-11T17:01:57.381Z,3.05
2022-09-11T17:04:18.802Z,3.25
2022-09-11T17:06:40.257Z,3.10
2022-09-11T17:09:03.975Z,3.15
2022-09-11T17:11:26.942Z,3.58
2022-09-11T17:13:49.154Z,2.95
2022-09-11T17:16:16.777Z,2.80
2022-09-11T17:18:39.292Z,3.35
2022-09-11T17:21:09.754Z,3.42
2022-09-11T17:23:32.448Z,3.70
2022-09-11T17:25:53.867Z,3.72
2022-09-11T17:28:15.244Z,4.28
2022-09-11T17:30:39.517Z,4.13
2022-09-11T17:33:00.902Z,3.67
2022-09-11T17:35:22.299Z,4.03
2022-09-11T17:37:45.264Z,3.50
2022-09-11T17:40:07.679Z,3.60
2022-09-11T17:42:30.275Z,3.38
2022-09-11T17:44:52.589Z,3.75
2022-09-11T17:47:14.132Z,3.50
2022-09-11T17:49:35.524Z,3.60
2022-09-11T17:51:58.078Z,3.92
2022-09-11T17:54:19.477Z,3.40
2022-09-11T17:56:42.379Z,3.17
2022-09-11T17:59:03.832Z,3.55
2022-09-11T18:01:27.135Z,4.10
2022-09-11T18:03:53.504Z,3.83
2022-09-11T18:06:19.279Z,3.60
2022-09-11T18:08:40.766Z,3.78
2022-09-11T18:11:02.359Z,4.03
2022-09-11T18:13:23.813Z,3.88
2022-09-11T18:15:45.230Z,4.22
2022-09-11T18:18:06.633Z,3.90
2022-09-11T18:20:28.217Z,4.00
2022-09-11T18:22:50.287Z,3.97
2022-09-11T18:25:11.783Z,4.22
2022-09-11T18:27:33.190Z,3.92
2022-09-11T18:29:55.013Z,3.95
2022-09-11T18:32:16.452Z,3.90
2022-09-11T18:34:38.348Z,3.88
2022-09-11T18:37:00.559Z,3.70
2022-09-11T18:39:22.147Z,4.25
2022-09-11T18:41:44.916Z,3.72
2022-09-11T18:44:17.409Z,3.90
2022-09-11T18:46:41.674Z,4.15
2022-09-11T18:49:04.113Z,31.45
2022-09-11T18:51:29.867Z,21.15
2022-09-11T18:53:51.962Z,36.15
2022-09-11T18:56:13.484Z,22.63
2022-09-11T18:58:37.476Z,18.63
2022-09-11T19:01:00.534Z,10.50
2022-09-11T19:03:22.697Z,6.82
2022-09-11T19:05:44.107Z,5.95
2022-09-11T19:08:05.501Z,5.75
2022-09-11T19:10:27.261Z,5.33
2022-09-11T19:12:48.695Z,4.55
2022-09-11T19:15:10.870Z,4.43
2022-09-11T19:17:32.771Z,4.30
2022-09-11T19:19:54.437Z,4.40
2022-09-11T19:22:15.834Z,4.68
2022-09-11T19:24:38.220Z,4.45
2022-09-11T19:27:00.249Z,3.97
2022-09-11T19:29:22.627Z,4.22
2022-09-11T19:31:44.064Z,4.33
2022-09-11T19:34:06.309Z,4.60
2022-09-11T19:36:30.258Z,4.00
2022-09-11T19:38:55.085Z,4.47
2022-09-11T19:41:20.414Z,3.60
2022-09-11T19:43:42.910Z,3.70
2022-09-11T19:46:10.837Z,4.00
2022-09-11T19:48:34.098Z,4.57
2022-09-11T19:50:55.520Z,4.40
2022-09-11T19:53:17.060Z,4.67
2022-09-11T19:55:38.658Z,3.80
2022-09-11T19:58:00.547Z,4.10
2022-09-11T20:00:22.816Z,4.50
2022-09-11T20:02:45.279Z,4.30
2022-09-11T20:05:07.189Z,4.63
2022-09-11T20:07:28.624Z,4.70
2022-09-11T20:09:50.170Z,4.23
2022-09-11T20:12:11.565Z,4.40
2022-09-11T20:14:32.999Z,4.80
2022-09-11T20:16:54.456Z,4.83
2022-09-11T20:19:17.231Z,4.30
2022-09-11T20:21:38.695Z,4.63
2022-09-11T20:24:00.521Z,5.00
2022-09-11T20:26:27.828Z,4.70
2022-09-11T20:28:56.780Z,4.33
2022-09-11T20:31:23.640Z,3.87
2022-09-11T20:33:46.155Z,4.07
2022-09-11T20:36:07.723Z,4.07
2022-09-11T20:38:29.135Z,4.40
2022-09-11T20:40:50.547Z,4.37
2022-09-11T20:43:12.488Z,4.63
2022-09-11T20:45:34.971Z,4.97
2022-09-11T20:47:56.383Z,5.27
2022-09-11T20:50:18.211Z,4.00
2022-09-11T20:52:41.046Z,4.80
2022-09-11T20:55:02.485Z,4.50
2022-09-11T20:57:23.949Z,4.73
2022-09-11T20:59:45.534Z,3.97
2022-09-11T21:02:06.965Z,3.97
2022-09-11T21:04:28.435Z,4.40
2022-09-11T21:06:50.544Z,4.87
2022-09-11T21:09:12.101Z,4.37
2022-09-11T21:11:35.069Z,4.37
2022-09-11T21:13:56.837Z,4.90
2022-09-11T21:16:19.854Z,5.30
2022-09-11T21:18:46.582Z,5.07
2022-09-11T21:21:08.059Z,5.43
2022-09-11T21:23:29.881Z,4.90
2022-09-11T21:25:52.770Z,5.10
2022-09-11T21:28:14.677Z,4.50
2022-09-11T21:30:38.476Z,4.40
2022-09-11T21:32:59.897Z,4.20
2022-09-11T21:35:21.382Z,4.13
2022-09-11T21:37:42.769Z,4.43
2022-09-11T21:40:05.056Z,4.47
2022-09-11T21:42:26.548Z,4.70
2022-09-11T21:44:48.013Z,5.27
2022-09-11T21:47:09.410Z,4.27
2022-09-11T21:49:30.819Z,4.37
2022-09-11T21:51:52.240Z,4.80
2022-09-11T21:54:13.654Z,4.70
2022-09-11T21:56:35.068Z,5.10
2022-09-11T21:58:56.914Z,4.67
2022-09-11T22:01:19.998Z,4.50
2022-09-11T22:03:41.496Z,4.90
2022-09-11T22:06:08.095Z,4.20
2022-09-11T22:08:29.531Z,4.47
2022-09-11T22:10:51.866Z,4.40
2022-09-11T22:13:13.385Z,4.60
2022-09-11T22:15:34.793Z,4.83
2022-09-11T22:17:56.428Z,4.70
2022-09-11T22:20:18.025Z,4.93
2022-09-11T22:22:40.649Z,4.57
2022-09-11T22:25:02.043Z,4.63
2022-09-11T22:27:23.479Z,5.03
2022-09-11T22:29:47.043Z,4.90
2022-09-11T22:32:08.588Z,4.80
2022-09-11T22:34:32.958Z,4.80
2022-09-11T22:36:54.404Z,5.33
2022-09-11T22:39:15.964Z,5.13
2022-09-11T22:41:37.372Z,5.10
2022-09-11T22:43:58.833Z,5.50
2022-09-11T22:46:21.577Z,4.87
2022-09-11T22:48:43.886Z,4.73
2022-09-11T22:51:05.568Z,4.43
2022-09-11T22:53:28.648Z,4.30
2022-09-11T22:55:50.486Z,4.70
2022-09-11T22:58:12.820Z,4.90
2022-09-11T23:00:34.508Z,4.70
2022-09-11T23:02:55.931Z,5.03
2022-09-11T23:05:36.023Z,4.50
2022-09-11T23:07:57.445Z,4.60
2022-09-11T23:10:23.659Z,4.43
2022-09-11T23:12:45.501Z,4.83
2022-09-11T23:15:07.683Z,4.70
2022-09-11T23:17:29.113Z,4.60
2022-09-11T23:19:50.521Z,5.07
2022-09-11T23:22:11.929Z,5.87
2022-09-11T23:24:33.344Z,5.17
2022-09-11T23:26:54.773Z,5.00
2022-09-11T23:29:16.188Z,5.80
2022-09-11T23:31:37.762Z,4.77
2022-09-11T23:34:04.307Z,4.90
2022-09-11T23:36:26.607Z,4.93
2022-09-11T23:38:49.066Z,5.10
2022-09-11T23:41:10.585Z,5.37
2022-09-11T23:43:32.014Z,5.70
2022-09-11T23:45:53.430Z,5.57
2022-09-11T23:48:14.894Z,4.97
2022-09-11T23:50:36.512Z,5.30
2022-09-11T23:52:57.915Z,5.00
2022-09-11T23:55:19.394Z,4.93
2022-09-11T23:57:40.839Z,4.37
